createdAt,value
2019-05-26T00:01:37.493Z,47.62
2019-05-26T00:04:08.618Z,47.60
2019-05-26T00:06:39.742Z,47.61
2019-05-26T00:09:10.818Z,47.60
2019-05-26T00:11:41.949Z,47.63
2019-05-26T00:14:13.035Z,47.61
2019-05-26T00:16:45.205Z,47.67
2019-05-26T00:19:16.867Z,47.67
2019-05-26T00:21:47.962Z,47.71
2019-05-26T00:24:19.156Z,47.70
2019-05-26T00:26:50.255Z,47.73
2019-05-26T00:29:21.639Z,47.77
2019-05-26T00:31:52.723Z,47.72
2019-05-26T00:34:23.842Z,47.70
2019-05-26T00:36:54.929Z,47.74
2019-05-26T00:39:26.084Z,47.76
2019-05-26T00:41:57.181Z,47.83
2019-05-26T00:44:28.278Z,47.88
2019-05-26T00:46:59.356Z,47.95
2019-05-26T00:49:30.471Z,47.96
2019-05-26T00:52:01.741Z,48.03
2019-05-26T00:54:32.855Z,48.05
2019-05-26T00:57:03.958Z,48.10
2019-05-26T00:59:35.080Z,48.11
2019-05-26T01:02:06.304Z,48.10
2019-05-26T01:04:37.392Z,48.22
2019-05-26T01:07:08.588Z,48.18
2019-05-26T01:09:39.682Z,48.19
2019-05-26T01:12:10.875Z,48.23
2019-05-26T01:14:41.960Z,48.25
2019-05-26T01:17:13.089Z,48.30
2019-05-26T01:19:44.187Z,48.34
2019-05-26T01:22:15.290Z,48.37
2019-05-26T01:24:46.415Z,48.26
2019-05-26T01:27:17.571Z,48.26
2019-05-26T01:29:48.732Z,48.40
2019-05-26T01:32:20.657Z,48.39
2019-05-26T01:34:51.782Z,48.43
2019-05-26T01:37:23.021Z,48.58
2019-05-26T01:39:54.494Z,48.59
2019-05-26T01:42:26.212Z,48.60
2019-05-26T01:44:57.313Z,48.70
2019-05-26T01:47:28.412Z,48.77
2019-05-26T01:49:59.773Z,48.84
2019-05-26T01:52:32.179Z,48.97
2019-05-26T01:55:03.331Z,49.04
2019-05-26T01:57:34.457Z,49.14
2019-05-26T02:00:07.936Z,49.21
2019-05-26T02:02:40.611Z,49.19
2019-05-26T02:05:11.795Z,49.31
2019-05-26T02:07:42.908Z,49.36
2019-05-26T02:10:14.159Z,49.34
2019-05-26T02:12:45.315Z,49.39
2019-05-26T02:15:17.079Z,49.41
2019-05-26T02:17:48.193Z,49.41
2019-05-26T02:20:21.398Z,49.42
2019-05-26T02:22:52.488Z,49.51
2019-05-26T02:25:24.186Z,49.59
2019-05-26T02:27:55.285Z,49.69
2019-05-26T02:30:26.553Z,49.76
2019-05-26T02:32:57.941Z,49.80
2019-05-26T02:35:29.204Z,49.82
2019-05-26T02:38:00.278Z,49.82
2019-05-26T02:40:31.768Z,49.82
2019-05-26T02:43:02.937Z,49.89
2019-05-26T02:45:34.102Z,49.92
2019-05-26T02:48:05.522Z,49.88
2019-05-26T02:50:36.636Z,49.88
2019-05-26T02:53:07.719Z,49.96
2019-05-26T02:55:38.808Z,49.94
2019-05-26T02:58:09.925Z,49.91
2019-05-26T03:00:45.950Z,49.88
2019-05-26T03:03:17.727Z,49.92
2019-05-26T03:05:48.821Z,50.00
2019-05-26T03:08:22.107Z,50.07
2019-05-26T03:10:53.463Z,50.09
2019-05-26T03:13:24.634Z,50.11
2019-05-26T03:15:58.401Z,50.14
2019-05-26T03:18:31.090Z,50.21
2019-05-26T03:21:04.174Z,50.24
2019-05-26T03:23:35.404Z,50.35
2019-05-26T03:26:06.600Z,50.37
2019-05-26T03:28:37.679Z,50.43
2019-05-26T03:31:08.790Z,50.45
2019-05-26T03:33:40.370Z,50.47
2019-05-26T03:36:11.496Z,50.46
2019-05-26T03:38:42.580Z,50.54
2019-05-26T03:41:13.685Z,50.55
2019-05-26T03:43:44.848Z,50.52
2019-05-26T03:46:20.047Z,50.59
2019-05-26T03:48:51.742Z,50.73
2019-05-26T03:51:22.856Z,50.73
2019-05-26T03:53:54.004Z,50.69
2019-05-26T03:56:25.132Z,50.71
2019-05-26T03:58:56.693Z,50.67
2019-05-26T04:01:29.089Z,50.73
2019-05-26T04:04:00.166Z,50.69
2019-05-26T04:06:31.300Z,50.77
2019-05-26T04:09:02.426Z,50.77
2019-05-26T04:11:33.493Z,50.87
2019-05-26T04:14:05.118Z,50.84
2019-05-26T04:16:36.291Z,51.00
2019-05-26T04:19:07.407Z,50.98
2019-05-26T04:21:38.491Z,51.02
2019-05-26T04:24:09.621Z,51.10
2019-05-26T04:26:42.394Z,51.09
2019-05-26T04:29:13.442Z,51.02
2019-05-26T04:31:44.666Z,51.01
2019-05-26T04:34:15.938Z,51.12
2019-05-26T04:36:47.058Z,51.13
2019-05-26T04:39:18.180Z,51.13
2019-05-26T04:41:50.367Z,51.17
2019-05-26T04:44:21.491Z,51.18
2019-05-26T04:46:52.575Z,51.16
2019-05-26T04:49:23.746Z,51.27
2019-05-26T04:51:54.908Z,51.25
2019-05-26T04:54:25.999Z,51.30
2019-05-26T04:56:57.092Z,51.33
2019-05-26T04:59:28.212Z,51.45
2019-05-26T05:01:59.910Z,51.40
2019-05-26T05:04:31.100Z,51.44
2019-05-26T05:07:02.486Z,51.61
2019-05-26T05:09:33.587Z,51.60
2019-05-26T05:12:04.880Z,51.57
2019-05-26T05:14:35.986Z,51.51
2019-05-26T05:17:07.153Z,51.63
2019-05-26T05:19:38.227Z,51.70
2019-05-26T05:22:09.363Z,51.68
2019-05-26T05:24:40.457Z,51.71
2019-05-26T05:27:11.569Z,51.79
2019-05-26T05:29:42.729Z,51.76
2019-05-26T05:32:13.845Z,51.78
2019-05-26T05:34:44.928Z,51.82
2019-05-26T05:37:16.457Z,51.94
2019-05-26T05:39:47.815Z,52.05
2019-05-26T05:42:20.013Z,52.13
2019-05-26T05:44:54.157Z,52.43
2019-05-26T05:47:28.064Z,52.50
2019-05-26T05:49:58.945Z,52.61
2019-05-26T05:52:29.943Z,52.48
2019-05-26T05:55:01.091Z,52.82
2019-05-26T05:57:32.280Z,52.81
2019-05-26T06:00:05.350Z,52.86
2019-05-26T06:02:36.573Z,53.07
2019-05-26T06:05:08.215Z,53.26
2019-05-26T06:07:40.399Z,53.39
2019-05-26T06:10:11.749Z,53.50
2019-05-26T06:12:42.837Z,53.53
2019-05-26T06:15:15.973Z,53.67
2019-05-26T06:17:47.031Z,53.85
2019-05-26T06:20:19.690Z,53.59
2019-05-26T06:22:50.766Z,53.35
2019-05-26T06:25:21.950Z,53.20
2019-05-26T06:27:53.057Z,53.01
2019-05-26T06:30:24.718Z,52.81
2019-05-26T06:32:55.804Z,52.56
2019-05-26T06:35:26.956Z,52.40
2019-05-26T06:37:58.057Z,52.16
2019-05-26T06:40:29.191Z,52.08
2019-05-26T06:43:00.283Z,52.07
2019-05-26T06:45:31.433Z,51.98
2019-05-26T06:48:02.556Z,51.82
2019-05-26T06:50:33.857Z,51.83
2019-05-26T06:53:04.967Z,51.78
2019-05-26T06:55:36.076Z,51.84
2019-05-26T06:58:07.207Z,51.75
2019-05-26T07:00:38.331Z,51.73
2019-05-26T07:03:09.450Z,51.68
2019-05-26T07:05:40.565Z,51.63
2019-05-26T07:08:11.818Z,51.71
2019-05-26T07:10:42.983Z,51.66
2019-05-26T07:13:14.079Z,51.61
2019-05-26T07:15:45.227Z,51.58
2019-05-26T07:18:16.338Z,51.61
2019-05-26T07:20:47.458Z,51.59
2019-05-26T07:23:18.549Z,51.66
2019-05-26T07:25:49.691Z,51.77
2019-05-26T07:28:22.256Z,51.80
2019-05-26T07:30:53.369Z,51.87
2019-05-26T07:33:24.540Z,51.73
2019-05-26T07:35:55.664Z,51.72
2019-05-26T07:38:26.754Z,51.59
2019-05-26T07:40:57.864Z,51.58
2019-05-26T07:43:28.987Z,51.42
2019-05-26T07:46:00.076Z,51.50
2019-05-26T07:48:34.972Z,51.14
2019-05-26T07:51:03.971Z,51.12
2019-05-26T07:53:35.085Z,50.99
2019-05-26T07:56:06.320Z,50.84
2019-05-26T07:58:37.440Z,50.72
2019-05-26T08:01:08.598Z,50.58
2019-05-26T08:03:40.800Z,50.62
2019-05-26T08:06:11.899Z,50.44
2019-05-26T08:08:43.003Z,50.30
2019-05-26T08:11:14.101Z,50.08
2019-05-26T08:13:45.228Z,50.02
2019-05-26T08:16:16.338Z,50.02
2019-05-26T08:18:47.463Z,50.06
2019-05-26T08:21:18.555Z,49.81
2019-05-26T08:23:49.773Z,49.62
2019-05-26T08:26:21.360Z,49.32
2019-05-26T08:28:54.131Z,48.98
2019-05-26T08:31:25.273Z,48.82
2019-05-26T08:33:56.397Z,48.43
2019-05-26T08:36:27.490Z,48.84
2019-05-26T08:38:58.623Z,48.30
2019-05-26T08:41:29.801Z,47.76
2019-05-26T08:44:00.935Z,47.52
2019-05-26T08:46:32.011Z,47.40
2019-05-26T08:49:03.215Z,47.17
2019-05-26T08:51:34.299Z,46.96
2019-05-26T08:54:05.656Z,46.94
2019-05-26T08:56:36.720Z,46.93
2019-05-26T08:59:07.896Z,46.61
2019-05-26T09:01:39.826Z,46.61
2019-05-26T09:04:10.980Z,46.24
2019-05-26T09:06:42.043Z,45.72
2019-05-26T09:09:13.127Z,45.83
2019-05-26T09:11:44.202Z,45.77
2019-05-26T09:14:15.341Z,45.37
2019-05-26T09:16:46.450Z,45.46
2019-05-26T09:19:17.532Z,45.52
2019-05-26T09:21:48.594Z,45.71
2019-05-26T09:24:20.827Z,45.74
2019-05-26T09:26:51.971Z,45.48
2019-05-26T09:29:23.075Z,44.94
2019-05-26T09:31:54.188Z,44.77
2019-05-26T09:34:25.338Z,44.56
2019-05-26T09:36:57.204Z,44.45
2019-05-26T09:39:28.626Z,44.22
2019-05-26T09:41:59.802Z,44.08
2019-05-26T09:44:30.934Z,43.83
2019-05-26T09:47:02.074Z,43.54
2019-05-26T09:49:33.243Z,43.58
2019-05-26T09:52:04.347Z,43.63
2019-05-26T09:54:35.514Z,43.77
2019-05-26T09:57:06.630Z,43.66
2019-05-26T09:59:37.779Z,43.78
2019-05-26T10:02:08.876Z,43.57
2019-05-26T10:04:40.161Z,43.62
2019-05-26T10:07:15.696Z,43.83
2019-05-26T10:09:44.246Z,43.88
2019-05-26T10:12:15.387Z,43.92
2019-05-26T10:14:47.858Z,44.12
2019-05-26T10:17:23.203Z,44.01
2019-05-26T10:19:53.484Z,44.07
2019-05-26T10:22:24.695Z,44.10
2019-05-26T10:24:55.788Z,44.04
2019-05-26T10:27:26.916Z,43.69
2019-05-26T10:29:58.002Z,43.70
2019-05-26T10:32:29.188Z,43.63
2019-05-26T10:35:00.290Z,43.67
2019-05-26T10:37:31.396Z,43.66
2019-05-26T10:40:02.671Z,43.83
2019-05-26T10:42:34.880Z,43.72
2019-05-26T10:45:10.219Z,43.60
2019-05-26T10:47:41.628Z,43.64
2019-05-26T10:50:15.725Z,43.36
2019-05-26T10:52:46.949Z,43.36
2019-05-26T10:55:18.491Z,43.92
2019-05-26T10:57:49.574Z,43.21
2019-05-26T11:00:22.056Z,43.17
2019-05-26T11:02:53.154Z,43.15
2019-05-26T11:05:24.240Z,43.56
2019-05-26T11:07:55.297Z,43.60
2019-05-26T11:10:26.386Z,43.31
2019-05-26T11:12:57.453Z,43.06
2019-05-26T11:15:28.525Z,42.98
2019-05-26T11:18:00.197Z,42.88
2019-05-26T11:20:31.394Z,42.99
2019-05-26T11:23:02.513Z,42.89
2019-05-26T11:25:34.959Z,42.94
2019-05-26T11:28:06.423Z,42.90
2019-05-26T11:30:38.967Z,43.09
2019-05-26T11:33:11.674Z,42.69
2019-05-26T11:35:42.793Z,42.96
2019-05-26T11:38:13.899Z,42.51
2019-05-26T11:40:45.099Z,42.40
2019-05-26T11:43:17.504Z,42.12
2019-05-26T11:45:49.055Z,41.80
2019-05-26T11:48:21.413Z,41.54
2019-05-26T11:50:52.518Z,41.29
2019-05-26T11:53:23.646Z,41.08
2019-05-26T11:55:54.698Z,41.04
2019-05-26T11:58:25.832Z,40.91
2019-05-26T12:00:56.903Z,40.92
2019-05-26T12:03:27.977Z,40.84
2019-05-26T12:05:59.923Z,41.04
2019-05-26T12:08:31.001Z,41.26
2019-05-26T12:11:02.346Z,41.41
2019-05-26T12:13:36.566Z,41.31
2019-05-26T12:16:06.174Z,41.27
2019-05-26T12:18:37.286Z,41.24
2019-05-26T12:21:08.298Z,41.17
2019-05-26T12:23:40.735Z,41.30
2019-05-26T12:26:11.801Z,41.18
2019-05-26T12:28:42.903Z,41.11
2019-05-26T12:31:13.967Z,41.07
2019-05-26T12:33:45.095Z,41.29
2019-05-26T12:36:18.110Z,41.32
2019-05-26T12:38:52.385Z,40.88
2019-05-26T12:41:24.077Z,40.82
2019-05-26T12:43:55.173Z,40.79
2019-05-26T12:46:26.528Z,40.94
2019-05-26T12:48:57.595Z,40.74
2019-05-26T12:51:28.675Z,41.00
2019-05-26T12:54:00.005Z,41.04
2019-05-26T12:56:32.142Z,40.74
2019-05-26T12:59:03.285Z,40.80
2019-05-26T13:01:34.355Z,40.55
2019-05-26T13:04:05.501Z,40.65
2019-05-26T13:06:36.578Z,40.81
2019-05-26T13:09:11.326Z,40.34
2019-05-26T13:11:42.394Z,40.40
2019-05-26T13:14:13.465Z,40.80
2019-05-26T13:16:45.907Z,40.52
2019-05-26T13:19:16.995Z,40.53
2019-05-26T13:21:48.059Z,40.56
2019-05-26T13:24:20.304Z,40.23
2019-05-26T13:26:52.474Z,40.24
2019-05-26T13:29:25.925Z,40.51
2019-05-26T13:31:56.306Z,40.17
2019-05-26T13:34:27.402Z,40.54
2019-05-26T13:36:58.477Z,40.20
2019-05-26T13:39:29.595Z,39.97
2019-05-26T13:42:00.652Z,39.97
2019-05-26T13:44:32.164Z,39.78
2019-05-26T13:47:03.220Z,39.59
2019-05-26T13:49:34.345Z,39.77
2019-05-26T13:52:05.540Z,39.39
2019-05-26T13:54:36.640Z,39.69
2019-05-26T13:57:07.697Z,40.10
2019-05-26T13:59:38.776Z,39.77
2019-05-26T14:02:09.836Z,39.29
2019-05-26T14:04:40.911Z,39.10
2019-05-26T14:07:11.966Z,39.25
2019-05-26T14:09:43.054Z,39.40
2019-05-26T14:12:14.115Z,39.19
2019-05-26T14:14:45.215Z,39.31
2019-05-26T14:17:16.675Z,39.26
2019-05-26T14:19:49.108Z,39.04
2019-05-26T14:22:21.239Z,38.64
2019-05-26T14:24:54.464Z,38.43
2019-05-26T14:27:25.108Z,38.36
2019-05-26T14:29:56.202Z,38.47
2019-05-26T14:32:27.271Z,38.33
2019-05-26T14:34:58.343Z,38.19
2019-05-26T14:37:29.477Z,38.24
2019-05-26T14:40:00.582Z,38.03
2019-05-26T14:42:31.657Z,37.99
2019-05-26T14:45:04.118Z,38.05
2019-05-26T14:47:35.466Z,37.88
2019-05-26T14:50:10.310Z,37.87
2019-05-26T14:52:41.426Z,37.84
2019-05-26T14:55:12.743Z,37.69
2019-05-26T14:57:44.073Z,37.61
2019-05-26T15:00:17.469Z,37.67
2019-05-26T15:02:48.524Z,37.57
2019-05-26T15:05:20.919Z,37.88
2019-05-26T15:07:52.017Z,37.91
2019-05-26T15:10:24.741Z,37.65
2019-05-26T15:12:55.830Z,37.95
2019-05-26T15:15:27.669Z,37.86
2019-05-26T15:18:00.344Z,37.89
2019-05-26T15:20:31.412Z,37.64
2019-05-26T15:23:02.511Z,37.61
2019-05-26T15:25:33.591Z,37.64
2019-05-26T15:28:04.683Z,37.87
2019-05-26T15:30:35.821Z,37.40
2019-05-26T15:33:06.906Z,37.04
2019-05-26T15:35:37.977Z,37.14
2019-05-26T15:38:22.478Z,37.02
2019-05-26T15:40:55.313Z,37.07
2019-05-26T15:43:26.732Z,36.99
2019-05-26T15:45:57.797Z,36.93
2019-05-26T15:48:28.863Z,37.16
2019-05-26T15:51:00.001Z,37.26
2019-05-26T15:53:31.058Z,37.25
2019-05-26T15:56:03.225Z,37.10
2019-05-26T15:58:35.368Z,37.26
2019-05-26T16:01:04.954Z,37.19
2019-05-26T16:03:36.026Z,37.29
2019-05-26T16:06:07.161Z,37.35
2019-05-26T16:08:38.224Z,37.30
2019-05-26T16:11:09.295Z,37.30
2019-05-26T16:13:40.349Z,37.27
2019-05-26T16:16:11.452Z,37.22
2019-05-26T16:18:42.504Z,37.30
2019-05-26T16:21:27.047Z,37.40
2019-05-26T16:23:46.340Z,37.35
2019-05-26T16:26:17.398Z,37.38
2019-05-26T16:28:48.454Z,37.40
2019-05-26T16:31:19.516Z,37.67
2019-05-26T16:33:50.572Z,37.58
2019-05-26T16:36:21.803Z,37.63
2019-05-26T16:38:52.852Z,37.82
2019-05-26T16:41:23.906Z,37.83
2019-05-26T16:43:54.965Z,37.91
2019-05-26T16:46:55.916Z,37.60
2019-05-26T16:49:18.914Z,37.85
2019-05-26T16:51:50.009Z,37.91
2019-05-26T16:54:21.128Z,38.00
2019-05-26T16:56:52.194Z,38.03
2019-05-26T16:59:23.265Z,38.14
2019-05-26T17:01:54.352Z,38.03
2019-05-26T17:04:25.398Z,38.08
2019-05-26T17:06:56.487Z,38.25
2019-05-26T17:09:27.586Z,38.37
2019-05-26T17:11:58.661Z,38.38
2019-05-26T17:14:29.765Z,38.48
2019-05-26T17:17:14.320Z,38.66
2019-05-26T17:19:33.582Z,38.64
2019-05-26T17:22:04.693Z,38.58
2019-05-26T17:24:35.758Z,38.56
2019-05-26T17:27:06.846Z,38.54
2019-05-26T17:29:37.911Z,38.52
2019-05-26T17:32:09.006Z,38.56
2019-05-26T17:34:40.073Z,38.60
2019-05-26T17:37:11.158Z,38.63
2019-05-26T17:39:42.214Z,38.66
2019-05-26T17:42:13.313Z,38.75
2019-05-26T17:44:44.388Z,38.72
2019-05-26T17:47:29.206Z,39.03
2019-05-26T17:49:48.256Z,38.92
2019-05-26T17:52:19.302Z,38.88
2019-05-26T17:54:50.407Z,38.87
2019-05-26T17:57:22.519Z,38.89
2019-05-26T17:59:53.613Z,39.02
2019-05-26T18:02:24.686Z,39.10
2019-05-26T18:04:55.761Z,39.18
2019-05-26T18:07:26.844Z,39.22
2019-05-26T18:09:57.953Z,39.22
2019-05-26T18:12:29.063Z,39.19
2019-05-26T18:15:00.166Z,39.17
2019-05-26T18:17:45.864Z,39.30
2019-05-26T18:20:06.195Z,39.23
2019-05-26T18:22:37.428Z,39.31
2019-05-26T18:25:09.317Z,39.48
2019-05-26T18:27:40.414Z,39.45
2019-05-26T18:30:11.765Z,39.52
2019-05-26T18:32:42.828Z,39.61
2019-05-26T18:35:14.046Z,39.55
2019-05-26T18:37:45.141Z,39.60
2019-05-26T18:40:17.977Z,39.70
2019-05-26T18:42:49.048Z,39.71
2019-05-26T18:45:20.150Z,39.76
2019-05-26T18:48:02.500Z,39.84
2019-05-26T18:50:24.092Z,39.91
2019-05-26T18:52:55.157Z,39.87
2019-05-26T18:55:26.297Z,40.03
2019-05-26T18:57:57.398Z,40.04
2019-05-26T19:00:30.873Z,40.08
2019-05-26T19:03:01.336Z,40.03
2019-05-26T19:05:36.036Z,40.16
2019-05-26T19:08:05.243Z,40.22
2019-05-26T19:10:36.318Z,40.25
2019-05-26T19:13:10.606Z,40.29
2019-05-26T19:15:40.184Z,40.40
2019-05-26T19:18:20.068Z,40.40
2019-05-26T19:20:44.145Z,40.38
2019-05-26T19:23:15.213Z,40.41
2019-05-26T19:25:46.344Z,40.54
2019-05-26T19:28:17.410Z,40.51
2019-05-26T19:30:48.488Z,40.45
2019-05-26T19:33:21.086Z,40.52
2019-05-26T19:35:52.176Z,40.58
2019-05-26T19:38:23.248Z,40.55
2019-05-26T19:40:54.323Z,40.59
2019-05-26T19:43:25.389Z,40.60
2019-05-26T19:45:56.595Z,40.56
2019-05-26T19:48:36.653Z,40.57
2019-05-26T19:51:00.452Z,40.64
2019-05-26T19:53:31.517Z,40.73
2019-05-26T19:56:02.602Z,40.78
2019-05-26T19:58:33.691Z,40.80
2019-05-26T20:01:04.742Z,40.82
2019-05-26T20:03:35.806Z,40.83
2019-05-26T20:06:06.879Z,40.87
2019-05-26T20:08:37.955Z,40.93
2019-05-26T20:11:09.083Z,40.94
2019-05-26T20:13:40.135Z,40.96
2019-05-26T20:16:11.260Z,41.03
2019-05-26T20:18:42.312Z,40.99
2019-05-26T20:21:13.383Z,41.06
2019-05-26T20:23:44.450Z,41.08
2019-05-26T20:26:15.510Z,41.19
2019-05-26T20:28:46.572Z,41.25
2019-05-26T20:31:17.618Z,41.26
2019-05-26T20:33:48.686Z,41.36
2019-05-26T20:36:19.742Z,41.37
2019-05-26T20:38:50.806Z,41.47
2019-05-26T20:41:21.885Z,41.50
2019-05-26T20:43:52.943Z,41.54
2019-05-26T20:46:24.040Z,41.66
2019-05-26T20:48:55.102Z,41.68
2019-05-26T20:51:26.192Z,41.79
2019-05-26T20:53:57.433Z,41.78
2019-05-26T20:56:28.505Z,41.77
2019-05-26T20:58:59.575Z,41.87
2019-05-26T21:01:30.664Z,41.90
2019-05-26T21:04:01.792Z,41.95
2019-05-26T21:06:32.864Z,41.89
2019-05-26T21:09:05.569Z,42.01
2019-05-26T21:11:36.635Z,42.07
2019-05-26T21:14:07.703Z,42.00
2019-05-26T21:16:38.808Z,42.10
2019-05-26T21:19:09.900Z,42.19
2019-05-26T21:21:40.958Z,42.21
2019-05-26T21:24:12.055Z,42.26
2019-05-26T21:26:43.142Z,42.27
2019-05-26T21:29:14.347Z,42.47
2019-05-26T21:31:45.515Z,42.54
2019-05-26T21:34:16.595Z,42.53
2019-05-26T21:36:47.671Z,42.55
2019-05-26T21:39:18.740Z,42.63
2019-05-26T21:41:49.838Z,42.62
2019-05-26T21:44:20.930Z,42.54
2019-05-26T21:46:51.988Z,42.72
2019-05-26T21:49:23.089Z,42.81
2019-05-26T21:51:54.167Z,42.82
2019-05-26T21:54:25.241Z,42.72
2019-05-26T21:56:56.315Z,42.73
2019-05-26T21:59:27.444Z,42.78
2019-05-26T22:01:58.529Z,42.75
2019-05-26T22:04:29.606Z,42.86
2019-05-26T22:09:30.479Z,42.90
2019-05-26T22:12:01.907Z,42.94
2019-05-26T22:14:32.982Z,42.98
2019-05-26T22:17:04.124Z,43.01
2019-05-26T22:19:35.198Z,43.09
2019-05-26T22:22:07.990Z,43.10
2019-05-26T22:24:39.068Z,43.15
2019-05-26T22:27:10.135Z,43.21
2019-05-26T22:29:41.216Z,43.21
2019-05-26T22:32:12.287Z,43.14
2019-05-26T22:34:43.354Z,43.16
2019-05-26T22:37:14.467Z,43.17
2019-05-26T22:39:45.564Z,43.19
2019-05-26T22:42:16.640Z,43.20
2019-05-26T22:44:47.756Z,43.25
2019-05-26T22:47:18.825Z,43.25
2019-05-26T22:49:49.922Z,43.24
2019-05-26T22:52:21.000Z,43.32
2019-05-26T22:54:52.095Z,43.36
2019-05-26T22:57:23.166Z,43.32
2019-05-26T22:59:54.280Z,43.31
2019-05-26T23:02:25.351Z,43.35
2019-05-26T23:04:56.457Z,43.33
2019-05-26T23:07:27.526Z,43.40
2019-05-26T23:09:58.613Z,43.39
2019-05-26T23:12:29.686Z,43.45
2019-05-26T23:15:00.793Z,43.44
2019-05-26T23:17:31.871Z,43.49
2019-05-26T23:20:02.958Z,43.51
2019-05-26T23:22:34.043Z,43.51
2019-05-26T23:25:08.167Z,43.55
2019-05-26T23:27:39.250Z,43.62
2019-05-26T23:30:11.413Z,43.65
2019-05-26T23:32:42.507Z,43.69
2019-05-26T23:35:13.857Z,43.66
2019-05-26T23:37:44.927Z,43.68
2019-05-26T23:40:16.091Z,43.72
2019-05-26T23:42:47.184Z,43.76
2019-05-26T23:45:18.252Z,43.74
2019-05-26T23:47:49.341Z,43.71
2019-05-26T23:50:20.413Z,43.68
2019-05-26T23:52:51.483Z,43.87
2019-05-26T23:55:22.552Z,43.85
2019-05-26T23:57:53.626Z,43.86
